createdAt,value
2022-11-26T00:02:23.619Z,1.90
2022-11-26T00:04:51.029Z,2.10
2022-11-26T00:07:22.001Z,1.95
2022-11-26T00:09:50.130Z,2.20
2022-11-26T00:12:22.021Z,2.13
2022-11-26T00:14:49.478Z,1.92
2022-11-26T00:17:19.788Z,2.28
2022-11-26T00:19:47.393Z,3.05
2022-11-26T00:22:23.909Z,2.90
2022-11-26T00:24:51.573Z,3.10
2022-11-26T00:27:18.854Z,2.58
2022-11-26T00:29:48.157Z,2.17
2022-11-26T00:32:23.058Z,2.00
2022-11-26T00:34:50.288Z,1.83
2022-11-26T00:37:26.246Z,2.10
2022-11-26T00:39:54.555Z,1.60
2022-11-26T00:42:22.741Z,2.05
2022-11-26T00:44:49.951Z,1.55
2022-11-26T00:47:17.026Z,1.80
2022-11-26T00:49:44.316Z,1.65
2022-11-26T00:52:33.921Z,1.52
2022-11-26T00:55:03.577Z,1.63
2022-11-26T00:57:30.776Z,1.80
2022-11-26T00:59:57.946Z,1.80
2022-11-26T01:02:25.161Z,2.25
2022-11-26T01:04:52.416Z,2.90
2022-11-26T01:07:19.596Z,3.72
2022-11-26T01:09:47.750Z,4.70
2022-11-26T01:12:15.221Z,5.65
2022-11-26T01:14:42.399Z,6.93
2022-11-26T01:17:11.574Z,6.68
2022-11-26T01:19:38.967Z,5.97
2022-11-26T01:22:06.526Z,6.13
2022-11-26T01:24:33.951Z,5.88
2022-11-26T01:27:01.115Z,5.95
2022-11-26T01:29:28.903Z,5.10
2022-11-26T01:31:57.339Z,5.43
2022-11-26T01:34:24.526Z,6.38
2022-11-26T01:36:52.532Z,6.20
2022-11-26T01:39:20.570Z,6.50
2022-11-26T01:41:56.545Z,6.97
2022-11-26T01:44:27.766Z,6.93
2022-11-26T01:46:54.956Z,7.22
2022-11-26T01:49:29.522Z,6.38
2022-11-26T01:52:09.886Z,6.72
2022-11-26T01:54:39.536Z,6.75
2022-11-26T01:57:29.790Z,6.70
2022-11-26T02:00:00.608Z,6.57
2022-11-26T02:02:29.994Z,6.68
2022-11-26T02:05:15.603Z,6.78
2022-11-26T02:07:42.713Z,6.45
2022-11-26T02:10:10.553Z,6.65
2022-11-26T02:12:38.254Z,6.22
2022-11-26T02:15:05.550Z,6.03
2022-11-26T02:17:39.723Z,6.35
2022-11-26T02:20:25.452Z,5.97
2022-11-26T02:22:55.713Z,5.95
2022-11-26T02:25:29.628Z,5.72
2022-11-26T02:28:16.389Z,5.00
2022-11-26T02:30:49.394Z,4.68
2022-11-26T02:33:19.795Z,4.10
2022-11-26T02:35:52.252Z,4.03
2022-11-26T02:38:21.871Z,2.72
2022-11-26T02:40:50.566Z,2.15
2022-11-26T02:43:18.025Z,1.65
2022-11-26T02:45:49.958Z,1.90
2022-11-26T02:48:20.478Z,1.73
2022-11-26T02:50:55.543Z,1.40
2022-11-26T02:53:23.422Z,1.42
2022-11-26T02:55:53.402Z,1.65
2022-11-26T02:58:20.945Z,1.65
2022-11-26T03:00:48.692Z,1.50
2022-11-26T03:03:26.258Z,1.70
2022-11-26T03:05:55.467Z,1.42
2022-11-26T03:08:23.120Z,1.40
2022-11-26T03:10:50.211Z,1.42
2022-11-26T03:13:17.309Z,1.50
2022-11-26T03:15:44.660Z,1.63
2022-11-26T03:18:11.808Z,1.35
2022-11-26T03:20:38.885Z,1.42
2022-11-26T03:23:06.270Z,1.25
2022-11-26T03:25:33.649Z,1.48
2022-11-26T03:28:00.846Z,1.20
2022-11-26T03:30:27.920Z,1.42
2022-11-26T03:32:55.004Z,1.40
2022-11-26T03:35:22.311Z,1.48
2022-11-26T03:37:50.266Z,2.92
2022-11-26T03:40:18.073Z,3.55
2022-11-26T03:42:45.310Z,4.40
2022-11-26T03:45:12.505Z,3.90
2022-11-26T03:47:39.635Z,4.10
2022-11-26T03:50:07.109Z,5.00
2022-11-26T03:52:34.242Z,4.55
2022-11-26T03:55:01.371Z,4.03
2022-11-26T03:57:29.681Z,3.83
2022-11-26T03:59:56.717Z,3.75
2022-11-26T04:02:23.828Z,3.63
2022-11-26T04:04:51.084Z,4.18
2022-11-26T04:07:18.245Z,3.88
2022-11-26T04:09:45.438Z,4.20
2022-11-26T04:12:12.547Z,4.45
2022-11-26T04:14:39.816Z,4.15
2022-11-26T04:17:07.298Z,4.43
2022-11-26T04:19:34.395Z,4.35
2022-11-26T04:22:01.495Z,3.95
2022-11-26T04:24:28.633Z,3.60
2022-11-26T04:26:55.684Z,4.07
2022-11-26T04:29:22.769Z,4.05
2022-11-26T04:31:49.981Z,4.20
2022-11-26T04:34:16.989Z,3.70
2022-11-26T04:36:44.244Z,4.13
2022-11-26T04:39:12.770Z,4.00
2022-11-26T04:41:40.229Z,4.10
2022-11-26T04:44:07.459Z,4.18
2022-11-26T04:46:36.064Z,4.15
2022-11-26T04:49:03.079Z,4.13
2022-11-26T04:51:30.415Z,4.03
2022-11-26T04:54:00.418Z,3.50
2022-11-26T04:56:33.589Z,3.67
2022-11-26T04:59:01.010Z,4.25
2022-11-26T05:01:28.384Z,3.85
2022-11-26T05:03:55.726Z,3.60
2022-11-26T05:06:22.854Z,2.95
2022-11-26T05:08:50.125Z,3.10
2022-11-26T05:11:17.370Z,3.47
2022-11-26T05:13:45.460Z,3.33
2022-11-26T05:16:12.553Z,3.20
2022-11-26T05:18:40.545Z,3.92
2022-11-26T05:21:08.493Z,4.78
2022-11-26T05:23:35.600Z,5.85
2022-11-26T05:26:02.775Z,6.25
2022-11-26T05:28:30.346Z,5.90
2022-11-26T05:31:01.228Z,6.32
2022-11-26T05:33:28.944Z,6.20
2022-11-26T05:35:56.378Z,5.70
2022-11-26T05:38:23.610Z,6.07
2022-11-26T05:40:50.733Z,5.60
2022-11-26T05:43:18.359Z,4.63
2022-11-26T05:45:46.576Z,10.30
2022-11-26T05:48:13.715Z,7.25
2022-11-26T05:50:40.826Z,6.53
2022-11-26T05:53:09.997Z,5.63
2022-11-26T05:55:37.147Z,5.22
2022-11-26T05:58:04.344Z,5.40
2022-11-26T06:00:32.964Z,5.80
2022-11-26T06:03:01.327Z,5.22
2022-11-26T06:05:28.507Z,5.50
2022-11-26T06:07:55.686Z,9.07
2022-11-26T06:10:23.693Z,7.72
2022-11-26T06:12:51.633Z,8.75
2022-11-26T06:15:18.858Z,8.38
2022-11-26T06:17:46.052Z,7.57
2022-11-26T06:20:13.454Z,7.68
2022-11-26T06:22:41.841Z,8.43
2022-11-26T06:25:09.979Z,7.32
2022-11-26T06:27:38.819Z,8.27
2022-11-26T06:30:07.377Z,8.98
2022-11-26T06:32:34.618Z,8.98
2022-11-26T06:35:01.763Z,8.88
2022-11-26T06:37:28.966Z,8.90
2022-11-26T06:39:56.186Z,10.45
2022-11-26T06:42:23.231Z,10.38
2022-11-26T06:44:50.377Z,9.60
2022-11-26T06:47:17.584Z,28.63
2022-11-26T06:49:47.615Z,35.60
2022-11-26T06:52:14.825Z,29.58
2022-11-26T06:54:42.081Z,46.38
2022-11-26T06:57:11.621Z,38.88
2022-11-26T06:59:38.902Z,44.63
2022-11-26T07:02:06.126Z,34.42
2022-11-26T07:04:36.360Z,28.35
2022-11-26T07:07:03.683Z,20.27
2022-11-26T07:09:31.131Z,17.05
2022-11-26T07:11:59.100Z,19.60
2022-11-26T07:14:27.353Z,17.45
2022-11-26T07:16:54.521Z,17.10
2022-11-26T07:19:21.637Z,17.25
2022-11-26T07:21:48.743Z,15.80
2022-11-26T07:24:16.231Z,13.98
2022-11-26T07:26:43.429Z,12.75
2022-11-26T07:29:10.712Z,12.35
2022-11-26T07:31:40.496Z,12.77
2022-11-26T07:34:07.868Z,12.50
2022-11-26T07:36:35.102Z,12.07
2022-11-26T07:39:02.780Z,13.02
2022-11-26T07:41:30.686Z,12.18
2022-11-26T07:43:58.599Z,10.60
2022-11-26T07:46:29.054Z,10.40
2022-11-26T07:48:57.465Z,11.15
2022-11-26T07:51:28.664Z,10.75
2022-11-26T07:53:59.173Z,7.68
2022-11-26T07:56:27.736Z,9.40
2022-11-26T07:58:58.576Z,8.43
2022-11-26T08:01:27.579Z,7.60
2022-11-26T08:03:56.802Z,6.65
2022-11-26T08:06:26.196Z,6.50
2022-11-26T08:08:53.799Z,5.80
2022-11-26T08:11:25.567Z,6.65
2022-11-26T08:13:54.943Z,7.50
2022-11-26T08:16:23.677Z,6.22
2022-11-26T08:18:55.028Z,6.60
2022-11-26T08:21:22.504Z,7.13
2022-11-26T08:23:49.677Z,6.35
2022-11-26T08:26:30.972Z,6.38
2022-11-26T08:29:02.104Z,6.70
2022-11-26T08:31:29.805Z,7.05
2022-11-26T08:33:57.517Z,6.28
2022-11-26T08:36:24.852Z,8.00
2022-11-26T08:38:52.098Z,7.63
2022-11-26T08:41:19.340Z,7.20
2022-11-26T08:46:35.745Z,9.30
2022-11-26T08:49:03.581Z,9.68
2022-11-26T08:51:30.755Z,9.07
2022-11-26T08:53:57.893Z,9.70
2022-11-26T08:56:25.094Z,9.63
2022-11-26T08:58:53.271Z,10.18
2022-11-26T09:01:28.099Z,12.30
2022-11-26T09:03:56.395Z,9.13
2022-11-26T09:06:24.664Z,9.23
2022-11-26T09:09:10.528Z,12.00
2022-11-26T09:11:39.313Z,14.43
2022-11-26T09:14:06.501Z,16.73
2022-11-26T09:16:33.811Z,19.10
2022-11-26T09:19:01.330Z,22.05
2022-11-26T09:21:28.916Z,22.73
2022-11-26T09:23:56.276Z,23.52
2022-11-26T09:26:23.520Z,23.85
2022-11-26T09:28:50.969Z,23.00
2022-11-26T09:31:18.715Z,21.65
2022-11-26T09:33:46.103Z,23.13
2022-11-26T09:36:18.752Z,21.90
2022-11-26T09:38:47.398Z,23.77
2022-11-26T09:41:25.436Z,20.33
2022-11-26T09:44:08.186Z,18.63
2022-11-26T09:46:50.829Z,16.85
2022-11-26T09:49:26.102Z,16.42
2022-11-26T09:51:55.709Z,18.42
2022-11-26T09:54:24.348Z,19.65
2022-11-26T09:56:54.210Z,20.88
2022-11-26T09:59:22.822Z,20.58
2022-11-26T10:01:51.267Z,21.20
2022-11-26T10:04:24.623Z,20.50
2022-11-26T10:06:59.117Z,19.83
2022-11-26T10:09:38.900Z,18.85
2022-11-26T10:12:26.501Z,17.85
2022-11-26T10:14:54.697Z,18.60
2022-11-26T10:17:28.174Z,17.83
2022-11-26T10:19:59.116Z,19.77
2022-11-26T10:22:39.065Z,21.05
2022-11-26T10:25:14.889Z,19.20
2022-11-26T10:27:42.903Z,21.90
2022-11-26T10:30:17.518Z,20.92
2022-11-26T10:32:45.962Z,20.17
2022-11-26T10:35:18.693Z,19.50
2022-11-26T10:37:47.818Z,17.67
2022-11-26T10:40:25.293Z,18.92
2022-11-26T10:43:15.563Z,18.48
2022-11-26T10:45:44.126Z,19.10
2022-11-26T10:48:20.217Z,16.85
2022-11-26T10:50:58.594Z,19.92
2022-11-26T10:53:26.725Z,21.63
2022-11-26T10:56:01.958Z,20.25
2022-11-26T10:58:40.336Z,16.77
2022-11-26T11:01:07.973Z,15.50
2022-11-26T11:06:40.280Z,14.55
2022-11-26T11:09:26.422Z,13.50
2022-11-26T11:12:08.880Z,12.35
2022-11-26T11:14:42.379Z,12.38
2022-11-26T11:17:24.485Z,12.05
2022-11-26T11:19:51.963Z,14.38
2022-11-26T11:22:22.784Z,18.10
2022-11-26T11:24:50.076Z,14.25
2022-11-26T11:27:30.918Z,14.48
2022-11-26T11:30:01.642Z,14.95
2022-11-26T11:32:39.353Z,15.63
2022-11-26T11:35:32.598Z,12.88
2022-11-26T11:38:00.650Z,12.93
2022-11-26T11:40:29.490Z,10.88
2022-11-26T11:43:00.807Z,10.07
2022-11-26T11:45:41.964Z,10.55
2022-11-26T11:48:21.959Z,7.65
2022-11-26T11:50:58.499Z,7.18
2022-11-26T11:53:44.865Z,6.22
2022-11-26T11:56:12.038Z,7.88
2022-11-26T11:58:54.413Z,7.43
2022-11-26T12:01:27.655Z,7.68
2022-11-26T12:04:07.267Z,6.97
2022-11-26T12:06:46.216Z,6.68
2022-11-26T12:09:13.500Z,8.68
2022-11-26T12:11:52.618Z,9.50
2022-11-26T12:14:38.130Z,8.27
2022-11-26T12:17:40.756Z,8.18
2022-11-26T12:20:19.862Z,9.38
2022-11-26T12:22:54.808Z,8.23
2022-11-26T12:25:35.168Z,8.88
2022-11-26T12:28:12.803Z,8.10
2022-11-26T12:30:58.577Z,10.10
2022-11-26T12:33:36.601Z,10.60
2022-11-26T12:36:12.324Z,10.90
2022-11-26T12:38:48.116Z,10.85
2022-11-26T12:41:18.789Z,13.57
2022-11-26T12:44:04.480Z,15.40
2022-11-26T12:46:35.421Z,13.45
2022-11-26T12:49:29.435Z,12.20
2022-11-26T12:52:02.773Z,12.15
2022-11-26T12:54:38.824Z,14.60
2022-11-26T12:57:15.511Z,12.60
2022-11-26T12:59:52.031Z,11.88
2022-11-26T13:02:39.484Z,15.32
2022-11-26T13:05:07.059Z,155.15
2022-11-26T13:07:43.726Z,16.75
2022-11-26T13:10:46.558Z,15.68
2022-11-26T13:13:19.628Z,17.48
2022-11-26T13:15:49.339Z,18.02
2022-11-26T13:18:24.171Z,18.33
2022-11-26T13:21:01.066Z,20.95
2022-11-26T13:23:43.826Z,20.35
2022-11-26T13:26:37.608Z,19.38
2022-11-26T13:29:23.572Z,20.27
2022-11-26T13:32:12.991Z,19.48
2022-11-26T13:34:41.332Z,19.67
2022-11-26T13:37:28.800Z,23.10
2022-11-26T13:40:14.815Z,31.33
2022-11-26T13:45:28.115Z,23.20
2022-11-26T13:48:02.080Z,22.40
2022-11-26T13:50:35.568Z,23.02
2022-11-26T13:53:15.878Z,22.35
2022-11-26T13:55:49.169Z,21.00
2022-11-26T13:58:31.015Z,22.38
2022-11-26T14:01:18.163Z,22.80
2022-11-26T14:03:47.781Z,24.35
2022-11-26T14:06:15.358Z,22.38
2022-11-26T14:08:44.584Z,19.83
2022-11-26T14:11:12.429Z,22.40
2022-11-26T14:13:39.833Z,18.73
2022-11-26T14:16:09.514Z,20.73
2022-11-26T14:18:49.166Z,19.48
2022-11-26T14:21:17.284Z,20.83
2022-11-26T14:23:46.001Z,19.80
2022-11-26T14:26:25.849Z,19.13
2022-11-26T14:29:03.510Z,20.60
2022-11-26T14:31:32.303Z,32.55
2022-11-26T14:34:03.527Z,31.55
2022-11-26T14:36:31.297Z,31.50
2022-11-26T14:39:11.826Z,26.88
2022-11-26T14:41:42.968Z,32.55
2022-11-26T14:44:14.410Z,31.25
2022-11-26T14:46:49.561Z,30.50
2022-11-26T14:49:16.829Z,45.03
2022-11-26T14:51:46.442Z,43.35
2022-11-26T14:54:15.823Z,41.17
2022-11-26T14:56:46.391Z,44.20
2022-11-26T14:59:15.551Z,41.95
2022-11-26T15:01:49.318Z,43.78
2022-11-26T15:04:24.646Z,44.55
2022-11-26T15:06:52.155Z,54.80
2022-11-26T15:09:24.537Z,53.70
2022-11-26T15:11:57.650Z,48.58
2022-11-26T15:14:30.884Z,49.50
2022-11-26T15:17:02.406Z,52.33
2022-11-26T15:19:32.237Z,47.28
2022-11-26T15:22:00.653Z,53.03
2022-11-26T15:24:27.813Z,53.35
2022-11-26T15:26:55.420Z,50.38
2022-11-26T15:29:28.328Z,55.50
2022-11-26T15:31:55.373Z,54.15
2022-11-26T15:34:22.582Z,53.15
2022-11-26T15:36:49.614Z,54.60
2022-11-26T15:39:30.739Z,57.03
2022-11-26T15:42:17.773Z,59.38
2022-11-26T15:44:49.317Z,58.08
2022-11-26T15:47:19.802Z,60.28
2022-11-26T15:49:49.068Z,65.95
2022-11-26T15:52:16.363Z,67.88
2022-11-26T15:55:11.369Z,73.40
2022-11-26T15:57:39.648Z,78.43
2022-11-26T16:00:17.073Z,74.93
2022-11-26T16:02:45.307Z,80.80
2022-11-26T16:05:24.111Z,75.93
2022-11-26T16:08:04.507Z,75.00
2022-11-26T16:10:35.796Z,74.10
2022-11-26T16:13:23.320Z,66.90
2022-11-26T16:15:52.132Z,56.15
2022-11-26T16:18:21.311Z,56.55
2022-11-26T16:20:48.743Z,59.05
2022-11-26T16:23:21.648Z,55.78
2022-11-26T16:26:07.295Z,53.90
2022-11-26T16:28:34.448Z,47.20
2022-11-26T16:31:01.627Z,43.78
2022-11-26T16:33:29.572Z,158.75
2022-11-26T16:35:59.493Z,33.75
2022-11-26T16:38:27.531Z,30.45
2022-11-26T16:40:55.322Z,30.23
2022-11-26T16:43:22.841Z,30.83
2022-11-26T16:45:50.989Z,31.35
2022-11-26T16:48:25.623Z,28.85
2022-11-26T16:50:57.037Z,31.02
2022-11-26T16:53:24.296Z,31.05
2022-11-26T16:55:52.779Z,118.90
2022-11-26T16:58:26.933Z,49.53
2022-11-26T17:00:54.725Z,36.17
2022-11-26T17:03:25.545Z,36.83
2022-11-26T17:05:53.990Z,41.28
2022-11-26T17:08:21.393Z,38.97
2022-11-26T17:10:51.158Z,41.20
2022-11-26T17:13:18.575Z,41.28
2022-11-26T17:15:45.847Z,92.53
2022-11-26T17:18:16.423Z,55.67
2022-11-26T17:20:45.958Z,40.08
2022-11-26T17:23:14.342Z,40.47
2022-11-26T17:25:43.217Z,41.13
2022-11-26T17:28:11.764Z,38.70
2022-11-26T17:30:39.647Z,38.15
2022-11-26T17:33:09.529Z,42.85
2022-11-26T17:35:37.216Z,39.47
2022-11-26T17:38:05.157Z,41.13
2022-11-26T17:40:33.661Z,38.65
2022-11-26T17:43:00.771Z,42.00
2022-11-26T17:45:28.034Z,49.42
2022-11-26T17:47:55.328Z,51.47
2022-11-26T17:50:24.243Z,57.78
2022-11-26T17:52:52.922Z,67.05
2022-11-26T17:55:22.302Z,77.13
2022-11-26T17:57:50.398Z,72.68
2022-11-26T18:00:19.371Z,72.82
2022-11-26T18:02:46.634Z,72.40
2022-11-26T18:05:14.084Z,75.68
2022-11-26T18:07:41.285Z,86.63
2022-11-26T18:10:13.146Z,81.68
2022-11-26T18:12:40.880Z,84.80
2022-11-26T18:15:08.613Z,83.95
2022-11-26T18:17:38.314Z,93.43
2022-11-26T18:20:05.819Z,98.03
2022-11-26T18:22:33.220Z,103.70
2022-11-26T18:25:00.292Z,105.20
2022-11-26T18:27:30.889Z,101.20
2022-11-26T18:29:58.196Z,98.38
2022-11-26T18:32:25.324Z,93.45
2022-11-26T18:34:52.659Z,92.15
2022-11-26T18:37:19.877Z,91.60
2022-11-26T18:39:47.064Z,91.65
2022-11-26T18:45:01.524Z,86.18
2022-11-26T18:47:28.773Z,84.13
2022-11-26T18:49:55.812Z,83.13
2022-11-26T18:52:23.607Z,80.75
2022-11-26T18:54:51.129Z,76.72
2022-11-26T18:57:18.249Z,76.47
2022-11-26T18:59:46.921Z,92.35
2022-11-26T19:02:14.156Z,84.68
2022-11-26T19:04:41.716Z,90.60
2022-11-26T19:07:10.616Z,95.43
2022-11-26T19:09:38.089Z,96.22
2022-11-26T19:12:05.554Z,88.35
2022-11-26T19:14:32.785Z,74.25
2022-11-26T19:17:00.164Z,76.68
2022-11-26T19:19:28.384Z,85.88
2022-11-26T19:22:01.062Z,76.13
2022-11-26T19:24:29.466Z,74.22
2022-11-26T19:26:57.926Z,67.20
2022-11-26T19:29:25.242Z,69.93
2022-11-26T19:31:52.430Z,68.63
2022-11-26T19:34:19.893Z,65.40
2022-11-26T19:36:48.846Z,67.32
2022-11-26T19:39:16.729Z,70.45
2022-11-26T19:41:44.044Z,65.05
2022-11-26T19:44:15.121Z,71.93
2022-11-26T19:46:43.232Z,69.20
2022-11-26T19:49:12.169Z,66.00
2022-11-26T19:51:40.391Z,67.82
2022-11-26T19:54:08.234Z,64.18
2022-11-26T19:56:35.621Z,64.10
2022-11-26T19:59:03.303Z,63.45
2022-11-26T20:01:31.853Z,62.40
2022-11-26T20:03:59.881Z,64.00
2022-11-26T20:06:28.569Z,67.50
2022-11-26T20:08:57.463Z,63.78
2022-11-26T20:11:24.778Z,61.50
2022-11-26T20:13:52.068Z,62.15
2022-11-26T20:16:20.619Z,57.42
2022-11-26T20:18:48.220Z,62.63
2022-11-26T20:21:17.420Z,61.42
2022-11-26T20:23:44.604Z,59.13
2022-11-26T20:26:17.640Z,56.28
2022-11-26T20:28:45.113Z,58.70
2022-11-26T20:31:13.459Z,60.53
2022-11-26T20:33:41.093Z,61.53
2022-11-26T20:36:09.348Z,61.67
2022-11-26T20:38:37.174Z,65.10
2022-11-26T20:41:08.305Z,65.28
2022-11-26T20:43:35.678Z,59.38
2022-11-26T20:46:03.842Z,47.95
2022-11-26T20:48:31.454Z,54.75
2022-11-26T20:51:05.278Z,43.08
2022-11-26T20:53:34.058Z,36.90
2022-11-26T20:56:01.407Z,43.20
2022-11-26T20:58:29.109Z,43.72
2022-11-26T21:00:56.512Z,46.92
2022-11-26T21:03:24.511Z,44.45
2022-11-26T21:05:51.861Z,46.45
2022-11-26T21:08:19.190Z,47.05
2022-11-26T21:10:46.917Z,46.67
2022-11-26T21:13:15.123Z,45.08
2022-11-26T21:15:42.785Z,47.15
2022-11-26T21:18:10.553Z,46.75
2022-11-26T21:20:41.635Z,47.63
2022-11-26T21:23:09.722Z,47.65
2022-11-26T21:25:40.945Z,46.95
2022-11-26T21:28:08.377Z,46.60
2022-11-26T21:30:36.059Z,47.17
2022-11-26T21:33:08.793Z,46.60
2022-11-26T21:35:37.668Z,45.50
2022-11-26T21:38:05.489Z,44.63
2022-11-26T21:40:33.445Z,43.45
2022-11-26T21:43:00.539Z,45.85
2022-11-26T21:45:30.812Z,46.67
2022-11-26T21:47:58.061Z,46.75
2022-11-26T21:50:25.195Z,55.00
2022-11-26T21:52:52.394Z,54.35
2022-11-26T21:55:19.726Z,54.83
2022-11-26T21:57:46.820Z,45.38
2022-11-26T22:00:14.737Z,47.75
2022-11-26T22:02:41.927Z,54.60
2022-11-26T22:05:09.098Z,52.40
2022-11-26T22:07:36.570Z,55.58
2022-11-26T22:10:05.072Z,58.17
2022-11-26T22:12:33.181Z,57.90
2022-11-26T22:15:00.250Z,60.03
2022-11-26T22:17:27.434Z,67.82
2022-11-26T22:19:54.604Z,75.32
2022-11-26T22:22:21.807Z,71.78
2022-11-26T22:24:50.532Z,65.68
2022-11-26T22:27:18.030Z,69.80
2022-11-26T22:29:45.256Z,68.30
2022-11-26T22:32:12.392Z,68.57
2022-11-26T22:34:40.086Z,70.53
2022-11-26T22:37:08.563Z,67.75
2022-11-26T22:39:43.851Z,66.85
2022-11-26T22:42:11.077Z,65.65
2022-11-26T22:44:38.521Z,66.75
2022-11-26T22:47:05.617Z,69.65
2022-11-26T22:49:33.033Z,65.80
2022-11-26T22:52:00.127Z,67.88
2022-11-26T22:54:28.368Z,66.22
2022-11-26T22:56:55.501Z,67.32
2022-11-26T22:59:22.971Z,66.57
2022-11-26T23:01:54.851Z,72.22
2022-11-26T23:04:23.876Z,71.57
2022-11-26T23:06:54.762Z,68.43
2022-11-26T23:09:22.536Z,71.57
2022-11-26T23:11:51.040Z,71.72
2022-11-26T23:14:18.099Z,71.75
2022-11-26T23:16:45.203Z,71.22
2022-11-26T23:19:17.436Z,70.95
2022-11-26T23:21:47.038Z,68.82
2022-11-26T23:24:15.225Z,68.82
2022-11-26T23:26:42.616Z,68.07
2022-11-26T23:29:12.132Z,68.57
2022-11-26T23:31:40.885Z,68.07
2022-11-26T23:34:08.591Z,68.25
2022-11-26T23:36:36.794Z,62.45
2022-11-26T23:39:05.242Z,59.35
2022-11-26T23:41:32.503Z,53.85
2022-11-26T23:43:59.701Z,53.45
2022-11-26T23:46:30.241Z,47.75
2022-11-26T23:48:57.535Z,49.85
2022-11-26T23:51:26.050Z,50.20
2022-11-26T23:53:53.694Z,45.60
2022-11-26T23:56:24.731Z,48.70
2022-11-26T23:58:53.024Z,47.95
